Middle Spring, Pennsylvania
Current Conditions -  °F | °C
As of 9:53 PM on Thursday 18 Dec 2014 (Local Time) from KRYT Reporting Station
Overcast Overcast  
Wind Chill: 32°   Ceiling: 2600
Heat Index: 32°   Visibility: 10mi
Dew Point: 22°   Wind: 3mph
Humidity: 66%   Direction: NA
Pressure: 30.05"   Gusts: NA
Location:  40.0414°N, 77.4967°W
Report Text: KRYT 190253Z AUTO VRB03KT 10SM OVC026 00/M06 A3005 RMK AO2 SLP191 T00001056 58002 $
Loading
Personal Weather Stations






























Interactive Weather Map New forecast layout! Learn more

10-Day Weather Forecast

Advertisements
Track Severe Weather on mobile